Time;durP1;ratioP1;P1;durP2;ratioP2;P2;SDS_P1;SDS_P2;PMS_P1;PMS_P2;Temp;Humidity;BMP_temperature;BMP_pressure;BME280_temperature;BME280_humidity;BME280_pressure;Samples;Min_cycle;Max_cycle;Signal;HPM_P1;HPM_P2
2022/09/21 00:01:15;;;;;;;19.85;10.13;;;10.00;99.90;;;;;;5052746;28;20501;-56
2022/09/21 00:03:42;;;;;;;19.95;11.07;;;10.00;99.90;;;;;;5053138;28;20437;-56
2022/09/21 00:06:15;;;;;;;15.95;11.38;;;10.10;99.90;;;;;;5052667;28;20021;-57
2022/09/21 00:08:41;;;;;;;15.13;11.10;;;10.10;99.90;;;;;;5051824;28;20499;-56
2022/09/21 00:11:10;;;;;;;17.00;10.93;;;10.10;99.90;;;;;;5052869;28;20029;-56
2022/09/21 00:13:36;;;;;;;17.73;12.00;;;10.20;99.90;;;;;;5053226;28;20017;-56
2022/09/21 00:16:06;;;;;;;16.98;11.75;;;10.30;99.90;;;;;;5052779;28;20029;-56
2022/09/21 00:18:32;;;;;;;14.65;11.18;;;10.20;99.90;;;;;;5052271;28;20037;-57
2022/09/21 00:20:57;;;;;;;17.20;12.35;;;10.00;99.90;;;;;;5052499;28;20021;-56
2022/09/21 00:23:23;;;;;;;17.60;12.65;;;9.90;99.90;;;;;;5052564;28;20033;-56
2022/09/21 00:25:49;;;;;;;22.13;13.95;;;10.00;99.90;;;;;;5052983;28;20045;-56
2022/09/21 00:28:15;;;;;;;16.77;13.35;;;10.10;99.90;;;;;;5053681;28;20036;-56
2022/09/21 00:30:41;;;;;;;18.08;13.70;;;10.20;99.90;;;;;;5052410;28;20033;-57
2022/09/21 00:33:06;;;;;;;22.60;13.77;;;10.10;99.90;;;;;;5052804;28;20041;-55
2022/09/21 00:35:32;;;;;;;20.40;13.40;;;10.10;99.90;;;;;;5052770;28;20032;-55
2022/09/21 00:38:02;;;;;;;15.68;12.25;;;10.10;99.90;;;;;;5053028;28;20123;-56
2022/09/21 00:40:29;;;;;;;17.02;12.90;;;10.00;99.90;;;;;;5052959;28;20048;-56
2022/09/21 00:43:11;;;;;;;24.13;14.13;;;10.00;99.90;;;;;;5053429;28;20037;-56
2022/09/21 00:45:37;;;;;;;16.60;12.97;;;10.10;99.90;;;;;;5052737;28;20021;-56
2022/09/21 00:48:03;;;;;;;17.50;11.90;;;10.10;99.90;;;;;;5052602;28;20267;-56
2022/09/21 00:50:29;;;;;;;17.13;13.00;;;9.90;99.90;;;;;;5052773;28;20099;-56
2022/09/21 00:52:57;;;;;;;18.27;12.05;;;9.90;99.90;;;;;;5052323;28;20541;-56
2022/09/21 00:55:31;;;;;;;16.35;11.85;;;9.80;99.90;;;;;;5052455;28;20043;-56
2022/09/21 00:58:08;;;;;;;17.50;11.95;;;9.80;99.90;;;;;;5052969;28;20025;-57
2022/09/21 01:00:35;;;;;;;17.05;11.10;;;9.80;99.90;;;;;;5052608;28;20111;-56
2022/09/21 01:03:02;;;;;;;19.85;11.50;;;9.80;99.90;;;;;;5052154;28;20127;-56
2022/09/21 01:05:28;;;;;;;15.82;11.85;;;9.70;99.90;;;;;;5052677;28;20025;-55
2022/09/21 01:07:55;;;;;;;16.55;11.75;;;9.70;99.90;;;;;;5052257;28;20048;-56
2022/09/21 01:10:24;;;;;;;17.48;11.63;;;9.60;99.90;;;;;;5052622;28;20021;-56
2022/09/21 01:13:08;;;;;;;16.58;11.70;;;9.70;99.90;;;;;;5051826;28;20038;-56
2022/09/21 01:15:54;;;;;;;17.15;11.38;;;9.70;99.90;;;;;;5051652;28;20025;-56
2022/09/21 01:18:35;;;;;;;17.30;10.45;;;9.70;99.90;;;;;;5052396;28;20033;-56
2022/09/21 01:21:03;;;;;;;16.67;10.80;;;9.80;99.90;;;;;;5051557;28;20025;-56
2022/09/21 01:23:59;;;;;;;15.73;10.10;;;9.80;99.90;;;;;;5051722;28;20048;-56
2022/09/21 01:27:03;;;;;;;15.98;10.30;;;9.80;99.90;;;;;;5052048;28;20025;-56
2022/09/21 01:29:43;;;;;;;;;;;9.70;99.90;;;;;;5053114;28;20104;-56
2022/09/21 01:32:24;;;;;;;20.08;11.05;;;9.60;99.90;;;;;;5052320;28;20387;-55
2022/09/21 01:34:59;;;;;;;16.77;10.70;;;9.60;99.90;;;;;;5055464;28;20031;-55
2022/09/21 01:37:40;;;;;;;16.67;11.55;;;9.60;99.90;;;;;;5055601;28;20499;-55
2022/09/21 01:40:15;;;;;;;19.38;11.27;;;9.60;99.90;;;;;;5055719;28;20029;-55
2022/09/21 01:42:44;;;;;;;19.23;11.52;;;9.60;99.90;;;;;;5055355;28;20100;-55
2022/09/21 01:45:15;;;;;;;16.15;11.10;;;9.60;99.90;;;;;;5055369;28;20096;-55
2022/09/21 01:47:44;;;;;;;19.92;12.23;;;9.60;99.90;;;;;;5055386;28;20143;-55
2022/09/21 01:50:11;;;;;;;17.70;12.52;;;9.70;99.90;;;;;;5055364;28;20024;-55
2022/09/21 01:53:01;;;;;;;23.55;12.18;;;9.70;99.90;;;;;;5055002;28;20036;-55
2022/09/21 01:55:33;;;;;;;17.50;10.90;;;9.70;99.90;;;;;;5054566;28;20129;-55
2022/09/21 01:58:20;;;;;;;14.57;10.52;;;9.60;99.90;;;;;;5054407;28;20104;-55
2022/09/21 02:00:49;;;;;;;17.67;11.27;;;9.50;99.90;;;;;;5054426;28;20033;-55
2022/09/21 02:03:26;;;;;;;14.25;11.05;;;9.60;99.90;;;;;;5054611;28;20045;-55
2022/09/21 02:05:52;;;;;;;18.75;11.50;;;9.60;99.90;;;;;;5054660;28;20018;-56
2022/09/21 02:08:18;;;;;;;18.35;12.75;;;9.50;99.90;;;;;;5054560;28;20032;-56
2022/09/21 02:10:49;;;;;;;20.88;13.70;;;9.50;99.90;;;;;;5054246;28;20021;-56
2022/09/21 02:13:16;;;;;;;20.25;12.43;;;9.50;99.90;;;;;;5053968;28;20037;-56
2022/09/21 02:16:07;;;;;;;14.88;11.18;;;9.50;99.90;;;;;;5069721;28;20044;-56
2022/09/21 02:18:43;;;;;;;17.92;11.68;;;9.40;99.90;;;;;;5054173;28;20033;-56
2022/09/21 02:21:32;;;;;;;20.95;12.30;;;9.40;99.90;;;;;;5054261;28;20029;-55
2022/09/21 02:24:32;;;;;;;13.35;9.10;;;9.20;99.90;;;;;;5054213;28;20731;-55
2022/09/21 02:27:20;;;;;;;13.30;10.35;;;9.10;99.90;;;;;;5054389;28;20029;-55
2022/09/21 02:30:07;;;;;;;21.05;11.77;;;9.20;99.90;;;;;;5054213;28;20056;-56
2022/09/21 02:32:43;;;;;;;19.33;11.43;;;9.20;99.90;;;;;;5069511;28;20103;-56
2022/09/21 02:35:27;;;;;;;19.55;12.43;;;9.40;99.90;;;;;;5054115;28;20021;-57
2022/09/21 02:37:58;;;;;;;18.80;12.95;;;9.50;99.90;;;;;;5054261;28;20036;-56
2022/09/21 02:41:04;;;;;;;23.88;12.38;;;9.50;99.90;;;;;;5054183;28;20448;-56
2022/09/21 02:43:56;;;;;;;16.10;11.35;;;9.50;99.90;;;;;;5053610;28;20029;-57
2022/09/21 02:46:31;;;;;;;18.57;11.57;;;9.40;99.90;;;;;;5053964;28;20036;-56
2022/09/21 02:49:06;;;;;;;19.00;12.20;;;9.30;99.90;;;;;;5054181;28;20029;-56
2022/09/21 02:51:41;;;;;;;17.67;12.00;;;9.20;99.90;;;;;;5054420;28;20040;-56
2022/09/21 02:54:09;;;;;;;15.30;10.88;;;9.00;99.90;;;;;;5053891;28;20473;-56
2022/09/21 02:56:35;;;;;;;15.40;11.55;;;9.00;99.90;;;;;;5053629;28;20501;-56
2022/09/21 02:59:04;;;;;;;18.25;12.00;;;9.00;99.90;;;;;;5053506;28;20078;-57
2022/09/21 03:01:31;;;;;;;19.60;11.75;;;8.90;99.90;;;;;;5053632;28;20087;-56
2022/09/21 03:03:57;;;;;;;18.77;11.50;;;8.80;99.90;;;;;;5053792;28;20021;-56
2022/09/21 03:06:23;;;;;;;17.67;11.45;;;8.80;99.90;;;;;;5053366;28;20078;-56
2022/09/21 03:08:49;;;;;;;19.17;12.15;;;8.90;99.90;;;;;;5069414;28;20116;-56
2022/09/21 03:11:19;;;;;;;16.48;10.65;;;8.90;99.90;;;;;;5053303;28;20121;-56
2022/09/21 03:13:45;;;;;;;13.45;9.65;;;8.80;99.90;;;;;;5053291;28;20040;-56
2022/09/21 03:16:12;;;;;;;17.23;10.45;;;8.70;99.90;;;;;;5052669;28;20025;-56
2022/09/21 03:18:39;;;;;;;17.77;11.73;;;8.70;99.90;;;;;;5053714;28;20041;-57
2022/09/21 03:21:05;;;;;;;15.95;12.18;;;8.80;99.90;;;;;;5053392;28;20036;-56
2022/09/21 03:23:30;;;;;;;18.75;12.07;;;8.80;99.90;;;;;;5053369;28;20028;-56
2022/09/21 03:25:56;;;;;;;18.63;12.48;;;8.80;99.90;;;;;;5053748;28;20470;-56
2022/09/21 03:28:22;;;;;;;18.02;11.95;;;8.70;99.90;;;;;;5054529;28;20036;-56
2022/09/21 03:30:51;;;;;;;17.35;12.88;;;8.50;99.90;;;;;;5054612;28;20036;-56
2022/09/21 03:33:20;;;;;;;19.40;13.07;;;8.50;99.90;;;;;;5053964;28;20544;-55
2022/09/21 03:35:48;;;;;;;20.27;12.57;;;8.40;99.90;;;;;;5054172;28;20017;-55
2022/09/21 03:38:15;;;;;;;22.13;14.68;;;8.40;99.90;;;;;;5053789;28;20128;-55
2022/09/21 03:40:47;;;;;;;17.05;13.00;;;8.60;99.90;;;;;;5053378;28;20061;-55
2022/09/21 03:43:13;;;;;;;22.85;14.32;;;8.60;99.90;;;;;;5053436;28;20027;-56
2022/09/21 03:45:42;;;;;;;20.58;14.00;;;8.60;99.90;;;;;;5053431;28;20059;-56
2022/09/21 03:48:09;;;;;;;20.80;13.70;;;8.60;99.90;;;;;;5053688;28;20044;-56
2022/09/21 03:50:36;;;;;;;20.40;13.57;;;8.60;99.90;;;;;;5053761;28;20110;-56
2022/09/21 03:53:02;;;;;;;24.13;15.63;;;8.70;99.90;;;;;;5053398;28;20033;-56
2022/09/21 03:55:28;;;;;;;23.48;14.23;;;8.80;99.90;;;;;;5052939;28;20025;-55
2022/09/21 03:57:54;;;;;;;16.00;12.35;;;8.90;99.90;;;;;;5054254;28;20481;-55
2022/09/21 04:00:20;;;;;;;18.50;14.52;;;8.80;99.90;;;;;;5053872;28;20025;-55
2022/09/21 04:02:46;;;;;;;22.33;15.13;;;8.80;99.90;;;;;;5053737;28;20053;-55
2022/09/21 04:05:14;;;;;;;23.52;14.27;;;8.80;99.90;;;;;;5053914;28;20021;-55
2022/09/21 04:07:49;;;;;;;21.73;14.68;;;8.70;99.90;;;;;;5052043;28;20036;-55
2022/09/21 04:10:18;;;;;;;20.63;13.98;;;8.80;99.90;;;;;;5053833;28;20508;-56
2022/09/21 04:12:45;;;;;;;17.77;13.50;;;8.80;99.90;;;;;;5053635;28;20083;-55
2022/09/21 04:15:18;;;;;;;24.05;14.35;;;8.90;99.90;;;;;;5053838;28;20026;-55
2022/09/21 04:17:44;;;;;;;19.45;14.05;;;9.00;99.90;;;;;;5051756;28;20059;-55
2022/09/21 04:20:10;;;;;;;18.85;13.90;;;9.10;99.90;;;;;;5053302;28;20108;-55
2022/09/21 04:22:36;;;;;;;22.58;14.68;;;9.00;99.90;;;;;;5053075;28;20454;-55
2022/09/21 04:25:05;;;;;;;20.65;14.55;;;9.00;99.90;;;;;;5053101;28;20443;-55
2022/09/21 04:27:32;;;;;;;20.73;13.75;;;9.00;99.90;;;;;;5053281;28;20037;-55
2022/09/21 04:29:58;;;;;;;17.08;12.35;;;8.90;99.90;;;;;;5054491;28;20485;-55
2022/09/21 04:32:24;;;;;;;18.50;12.52;;;8.70;99.90;;;;;;5053045;28;20040;-55
2022/09/21 04:34:50;;;;;;;20.30;12.85;;;8.50;99.90;;;;;;5053781;28;20108;-55
2022/09/21 04:37:16;;;;;;;20.52;12.55;;;8.50;99.90;;;;;;5052844;28;20116;-54
2022/09/21 04:39:42;;;;;;;15.57;11.35;;;8.40;99.90;;;;;;5053937;28;20047;-55
2022/09/21 04:42:08;;;;;;;20.88;12.35;;;8.30;99.90;;;;;;5069236;28;20025;-55
2022/09/21 04:44:34;;;;;;;22.42;12.55;;;8.10;99.90;;;;;;5053630;28;20535;-55
2022/09/21 04:47:00;;;;;;;19.55;12.95;;;8.20;99.90;;;;;;5053512;28;20060;-55
2022/09/21 04:49:31;;;;;;;23.83;14.35;;;8.20;99.90;;;;;;5052362;28;20102;-55
2022/09/21 04:51:57;;;;;;;21.38;15.52;;;8.30;99.90;;;;;;5053278;28;20033;-55
2022/09/21 04:54:22;;;;;;;27.50;16.05;;;8.40;99.90;;;;;;5053558;28;20027;-55
2022/09/21 04:56:48;;;;;;;27.63;15.43;;;8.40;99.90;;;;;;5053109;28;20104;-58
2022/09/21 04:59:14;;;;;;;21.40;15.38;;;8.50;99.90;;;;;;5053509;28;20031;-55
2022/09/21 05:01:40;;;;;;;21.50;14.35;;;8.50;99.90;;;;;;5053423;28;20060;-55
2022/09/21 05:04:05;;;;;;;23.10;14.38;;;8.50;99.90;;;;;;5053073;28;20437;-55
2022/09/21 05:06:32;;;;;;;19.52;13.70;;;8.60;99.90;;;;;;5054121;28;20021;-55
2022/09/21 05:11:43;;;;;;;21.15;12.57;;;8.40;99.90;;;;;;5057087;28;20075;-55
2022/09/21 05:14:10;;;;;;;25.80;14.93;;;8.30;99.90;;;;;;5057252;28;20104;-55
2022/09/21 05:16:35;;;;;;;25.15;16.17;;;8.30;99.90;;;;;;5056834;28;20110;-55
2022/09/21 05:19:01;;;;;;;24.58;14.93;;;8.20;99.90;;;;;;5057702;28;20056;-55
2022/09/21 05:21:27;;;;;;;21.50;15.18;;;8.20;99.90;;;;;;5056953;28;20092;-55
2022/09/21 05:23:53;;;;;;;21.10;14.82;;;8.20;99.90;;;;;;5057232;28;20091;-55
2022/09/21 05:26:19;;;;;;;18.67;13.60;;;8.10;99.90;;;;;;5057507;28;20033;-55
2022/09/21 05:28:45;;;;;;;16.63;12.85;;;8.20;99.90;;;;;;5056528;28;20025;-55
2022/09/21 05:31:17;;;;;;;19.98;11.70;;;8.40;99.90;;;;;;5056997;28;20197;-54
2022/09/21 05:33:50;;;;;;;19.97;12.83;;;8.40;99.90;;;;;;5057287;28;20518;-54
2022/09/21 05:36:35;;;;;;;21.23;12.68;;;8.30;99.90;;;;;;5057166;28;20211;-55
2022/09/21 05:39:01;;;;;;;16.35;12.60;;;8.30;99.90;;;;;;5056662;28;20032;-55
2022/09/21 05:41:27;;;;;;;17.73;11.85;;;8.10;99.90;;;;;;5052892;28;20020;-55
2022/09/21 05:43:52;;;;;;;16.67;12.63;;;8.00;99.90;;;;;;5055124;28;20029;-59
2022/09/21 05:46:32;;;;;;;17.67;13.55;;;8.00;99.90;;;;;;5056613;28;20037;-56
2022/09/21 05:49:20;;;;;;;18.45;12.23;;;8.20;99.90;;;;;;5071412;28;20458;-54
2022/09/21 05:52:03;;;;;;;19.20;12.20;;;8.10;99.90;;;;;;5052835;28;20378;-54
2022/09/21 05:54:42;;;;;;;16.73;12.18;;;8.10;99.90;;;;;;5055670;28;20029;-54
2022/09/21 05:57:32;;;;;;;25.25;15.10;;;8.30;99.90;;;;;;5056002;28;20246;-53
2022/09/21 06:00:01;;;;;;;20.42;14.07;;;8.30;99.90;;;;;;5056372;28;20029;-53
2022/09/21 06:02:52;;;;;;;23.42;15.45;;;8.50;99.90;;;;;;5056427;28;20414;-53
2022/09/21 06:05:18;;;;;;;26.15;16.35;;;8.60;99.90;;;;;;5052103;28;20075;-54
2022/09/21 06:07:44;;;;;;;25.85;14.85;;;8.80;99.90;;;;;;5048876;28;20405;-54
2022/09/21 06:10:12;;;;;;;18.35;13.52;;;8.80;99.90;;;;;;5046064;28;20098;-54
2022/09/21 06:12:38;;;;;;;16.60;11.35;;;8.60;99.90;;;;;;5036830;28;20029;-56
2022/09/21 06:15:05;;;;;;;18.13;13.20;;;8.50;99.90;;;;;;5045641;28;20477;-56
2022/09/21 06:17:32;;;;;;;19.33;12.95;;;8.40;99.90;;;;;;5043861;28;20032;-56
2022/09/21 06:19:57;;;;;;;25.48;17.40;;;8.40;99.90;;;;;;5037943;28;20037;-56
2022/09/21 06:22:23;;;;;;;26.35;19.08;;;8.70;99.90;;;;;;5042799;28;20043;-56
2022/09/21 06:24:49;;;;;;;28.90;17.25;;;8.80;99.90;;;;;;5040523;28;20386;-56
2022/09/21 06:27:14;;;;;;;26.33;18.42;;;8.90;99.90;;;;;;5039589;28;20029;-56
2022/09/21 06:29:40;;;;;;;25.98;16.13;;;9.10;99.90;;;;;;5046467;28;20488;-56
2022/09/21 06:32:06;;;;;;;30.35;19.05;;;9.20;99.90;;;;;;5044954;28;20031;-56
2022/09/21 06:34:31;;;;;;;29.10;20.50;;;9.30;99.90;;;;;;5044606;28;20033;-56
2022/09/21 06:36:57;;;;;;;30.65;24.02;;;9.40;99.90;;;;;;5037620;28;20021;-56
2022/09/21 06:39:23;;;;;;;34.45;25.42;;;9.50;99.90;;;;;;5040571;28;20041;-56
2022/09/21 06:41:48;;;;;;;27.40;20.10;;;9.40;99.90;;;;;;5037227;28;20111;-56
2022/09/21 06:44:14;;;;;;;27.73;19.77;;;9.40;99.90;;;;;;5044106;28;20025;-56
2022/09/21 06:46:39;;;;;;;34.30;22.60;;;9.60;99.90;;;;;;5045271;28;20033;-56
2022/09/21 06:49:05;;;;;;;28.17;20.92;;;9.90;99.90;;;;;;5039533;28;20108;-57
2022/09/21 06:51:31;;;;;;;23.08;16.77;;;10.00;99.90;;;;;;5045835;28;20094;-56
2022/09/21 06:53:58;;;;;;;21.13;15.18;;;10.20;99.90;;;;;;5039872;28;20083;-56
2022/09/21 06:56:24;;;;;;;19.45;13.60;;;10.20;99.90;;;;;;5041762;28;20037;-56
2022/09/21 06:58:51;;;;;;;21.45;13.63;;;10.30;99.90;;;;;;5044373;28;20039;-56
2022/09/21 07:01:18;;;;;;;22.10;15.15;;;10.20;99.90;;;;;;5040329;28;20045;-56
2022/09/21 07:03:47;;;;;;;18.77;13.35;;;10.20;99.90;;;;;;5033455;28;20079;-57
2022/09/21 07:06:14;;;;;;;22.55;14.25;;;10.30;99.90;;;;;;5038557;28;20024;-56
2022/09/21 07:08:41;;;;;;;24.63;17.20;;;10.30;99.90;;;;;;5028559;28;20032;-56
2022/09/21 07:11:07;;;;;;;22.83;17.20;;;10.30;99.90;;;;;;5038143;28;20071;-56
2022/09/21 07:13:34;;;;;;;25.13;16.90;;;10.40;99.90;;;;;;5036165;28;20093;-56
2022/09/21 07:16:04;;;;;;;24.90;16.63;;;10.40;99.90;;;;;;5035718;28;20033;-56
2022/09/21 07:18:30;;;;;;;25.20;17.52;;;10.60;99.90;;;;;;5039841;28;20056;-56
2022/09/21 07:20:55;;;;;;;24.25;17.23;;;10.70;99.90;;;;;;5037054;28;20025;-56
2022/09/21 07:23:21;;;;;;;30.15;18.45;;;10.80;99.90;;;;;;5049833;28;20110;-56
2022/09/21 07:25:49;;;;;;;20.17;16.80;;;10.90;99.90;;;;;;5041930;28;20020;-56
2022/09/21 07:28:15;;;;;;;25.02;19.27;;;11.00;99.90;;;;;;5039457;28;20410;-57
2022/09/21 07:30:42;;;;;;;28.63;18.80;;;11.00;99.90;;;;;;5037554;28;20387;-56
2022/09/21 07:33:08;;;;;;;22.80;18.60;;;11.20;99.90;;;;;;5035704;28;20075;-57
2022/09/21 07:35:34;;;;;;;25.80;19.17;;;11.50;99.90;;;;;;5034254;28;20064;-57
2022/09/21 07:38:02;;;;;;;32.25;18.63;;;11.80;99.90;;;;;;5037966;28;20033;-57
2022/09/21 07:40:28;;;;;;;24.75;17.00;;;12.00;99.90;;;;;;5037012;28;20025;-57
2022/09/21 07:43:01;;;;;;;25.10;17.48;;;12.10;99.90;;;;;;5031844;28;20040;-57
2022/09/21 07:45:29;;;;;;;22.52;15.52;;;12.40;99.90;;;;;;5034378;28;20131;-57
2022/09/21 07:48:00;;;;;;;19.83;13.77;;;13.00;99.90;;;;;;5037457;28;20422;-57
2022/09/21 07:50:26;;;;;;;17.13;12.07;;;14.60;99.90;;;;;;5039974;28;20385;-58
2022/09/21 07:52:51;;;;;;;21.38;12.77;;;16.10;99.90;;;;;;5031043;28;20037;-58
2022/09/21 07:55:17;;;;;;;15.88;10.38;;;17.50;99.90;;;;;;5035775;28;20115;-58
2022/09/21 08:00:31;;;;;;;17.10;11.30;;;19.50;99.90;;;;;;5038251;28;20055;-57
2022/09/21 08:03:00;;;;;;;10.63;9.52;;;19.70;99.90;;;;;;5033817;28;20053;-58
2022/09/21 08:05:26;;;;;;;12.40;10.18;;;20.00;99.90;;;;;;5035991;28;20075;-58
2022/09/21 08:07:55;;;;;;;14.10;10.07;;;20.00;99.90;;;;;;5039779;28;20035;-59
2022/09/21 08:10:21;;;;;;;13.63;10.70;;;20.70;99.90;;;;;;5036351;28;20025;-58
2022/09/21 08:12:47;;;;;;;15.95;11.38;;;21.00;99.90;;;;;;5037530;28;20033;-58
2022/09/21 08:15:13;;;;;;;15.60;10.57;;;22.10;99.90;;;;;;5037896;28;20025;-59
2022/09/21 08:17:39;;;;;;;15.55;10.07;;;22.60;99.90;;;;;;5034807;28;20059;-59
2022/09/21 08:20:05;;;;;;;17.75;10.45;;;22.70;99.90;;;;;;5037057;28;20090;-59
2022/09/21 08:22:31;;;;;;;14.77;9.52;;;22.40;99.90;;;;;;5040305;28;20060;-59
2022/09/21 08:24:56;;;;;;;13.85;9.60;;;22.70;99.90;;;;;;5038863;28;20056;-59
2022/09/21 08:27:24;;;;;;;15.43;9.88;;;23.10;99.90;;;;;;5035853;28;20075;-60
2022/09/21 08:29:50;;;;;;;12.88;9.45;;;23.00;99.90;;;;;;5038077;28;20042;-59
2022/09/21 08:32:16;;;;;;;14.10;9.85;;;23.20;99.90;;;;;;5035667;28;20421;-59
2022/09/21 08:34:42;;;;;;;10.55;8.82;;;23.30;99.90;;;;;;5034242;28;20029;-59
2022/09/21 08:37:08;;;;;;;10.98;8.55;;;23.10;99.90;;;;;;5035170;28;20048;-59
2022/09/21 08:39:33;;;;;;;12.15;8.25;;;22.70;99.90;;;;;;5034191;28;20104;-59
2022/09/21 08:42:26;;;;;;;12.00;8.48;;;22.50;99.90;;;;;;5036320;28;20176;-59
2022/09/21 08:45:03;;;;;;;12.48;7.63;;;22.50;99.90;;;;;;5036892;28;20067;-59
2022/09/21 08:47:42;;;;;;;10.23;7.90;;;22.90;99.90;;;;;;5043102;28;20036;-59
2022/09/21 08:50:30;;;;;;;11.80;7.47;;;22.20;99.90;;;;;;5035240;28;20075;-58
2022/09/21 08:53:02;;;;;;;11.80;7.13;;;22.60;99.90;;;;;;5035578;28;20561;-60
2022/09/21 08:55:28;;;;;;;12.82;7.30;;;22.90;99.90;;;;;;5041555;28;20052;-59
2022/09/21 08:57:54;;;;;;;15.15;7.68;;;23.40;99.90;;;;;;5038947;28;20183;-59
2022/09/21 09:00:20;;;;;;;12.07;7.25;;;23.90;99.20;;;;;;5043522;28;20334;-59
2022/09/21 09:03:01;;;;;;;12.93;7.07;;;23.80;99.50;;;;;;5036375;28;20053;-59
2022/09/21 09:05:47;;;;;;;13.30;6.43;;;23.50;99.90;;;;;;5041347;28;20052;-59
2022/09/21 09:08:27;;;;;;;12.30;6.40;;;24.50;96.70;;;;;;5039742;28;20053;-59
2022/09/21 09:11:05;;;;;;;15.65;6.82;;;24.10;97.60;;;;;;5042041;28;20033;-59
2022/09/21 09:13:47;;;;;;;9.50;6.88;;;24.50;97.10;;;;;;5042056;28;20025;-59
2022/09/21 09:16:13;;;;;;;;;;;24.60;95.70;;;;;;5052509;28;20029;-59
2022/09/21 09:18:52;;;;;;;10.68;6.63;;;24.30;95.70;;;;;;5040289;28;20188;-59
2022/09/21 09:21:36;;;;;;;9.23;5.68;;;24.30;96.30;;;;;;5037876;28;20028;-59
2022/09/21 09:24:06;;;;;;;7.97;4.53;;;23.30;97.00;;;;;;5043066;28;20095;-59
2022/09/21 09:26:43;;;;;;;8.88;4.45;;;23.40;97.50;;;;;;5039685;28;20036;-59
2022/09/21 09:29:28;;;;;;;6.97;4.55;;;24.00;96.20;;;;;;5040512;28;20032;-59
2022/09/21 09:31:54;;;;;;;9.70;4.68;;;23.20;97.40;;;;;;5040080;28;20041;-59
2022/09/21 09:34:41;;;;;;;7.75;4.72;;;22.70;99.80;;;;;;5039627;28;20044;-59
2022/09/21 09:37:12;;;;;;;7.25;3.10;;;22.80;99.90;;;;;;5046332;28;20044;-59
2022/09/21 09:39:38;;;;;;;7.88;3.90;;;23.70;96.50;;;;;;5043224;28;20111;-59
2022/09/21 09:42:20;;;;;;;7.75;4.43;;;24.60;94.80;;;;;;5042463;28;20029;-59
2022/09/21 09:44:46;;;;;;;;;;;24.00;95.20;;;;;;5045710;28;20060;-59
2022/09/21 09:47:31;;;;;;;7.53;4.15;;;24.00;95.50;;;;;;5040631;28;20365;-59
2022/09/21 09:50:09;;;;;;;7.20;3.97;;;23.60;96.00;;;;;;5037493;28;20527;-60
2022/09/21 09:52:35;;;;;;;11.52;4.93;;;23.50;95.90;;;;;;5038135;28;20044;-59
2022/09/21 09:55:21;;;;;;;10.00;4.53;;;23.60;95.50;;;;;;5037817;28;20032;-60
2022/09/21 09:57:48;;;;;;;5.53;3.63;;;24.50;94.40;;;;;;5039645;28;20030;-60
2022/09/21 10:00:17;;;;;;;5.47;4.00;;;24.40;94.30;;;;;;5043069;28;20025;-59
2022/09/21 10:02:51;;;;;;;6.90;4.75;;;24.40;93.70;;;;;;5042748;28;20049;-60
2022/09/21 10:05:22;;;;;;;12.45;4.90;;;24.90;93.50;;;;;;5043102;28;20409;-60
2022/09/21 10:07:49;;;;;;;7.75;4.40;;;24.30;93.90;;;;;;5044992;28;20025;-60
2022/09/21 10:10:33;;;;;;;9.90;4.75;;;24.20;94.30;;;;;;5056885;28;20087;-60
2022/09/21 10:13:10;;;;;;;12.38;4.88;;;24.30;94.30;;;;;;5039452;28;20037;-60
2022/09/21 10:15:47;;;;;;;11.20;6.93;;;24.00;95.10;;;;;;5041740;28;20044;-60
2022/09/21 10:18:19;;;;;;;8.15;4.93;;;24.80;92.80;;;;;;5039199;28;20033;-60
2022/09/21 10:21:05;;;;;;;11.25;5.15;;;25.10;92.70;;;;;;5038556;28;20476;-59
2022/09/21 10:23:32;;;;;;;7.38;4.70;;;25.30;92.20;;;;;;5034317;28;20025;-59
2022/09/21 10:26:02;;;;;;;12.90;5.00;;;24.60;92.10;;;;;;5039809;28;20052;-59
2022/09/21 10:28:29;;;;;;;8.25;4.32;;;24.70;93.20;;;;;;5041383;28;20478;-61
2022/09/21 10:31:20;;;;;;;5.95;3.70;;;24.80;92.00;;;;;;5040562;28;20394;-61
2022/09/21 10:33:49;;;;;;;8.98;3.15;;;25.30;91.60;;;;;;5039598;28;20468;-61
2022/09/21 10:36:35;;;;;;;7.57;3.85;;;24.50;92.30;;;;;;5043893;28;20562;-61
2022/09/21 10:39:21;;;;;;;8.35;2.95;;;23.90;92.50;;;;;;5040794;28;20101;-59
2022/09/21 10:42:08;;;;;;;6.80;2.60;;;22.50;95.60;;;;;;5052598;28;20057;-59
2022/09/21 10:44:41;;;;;;;7.38;2.33;;;22.10;95.70;;;;;;5030161;28;20044;-58
2022/09/21 10:47:29;;;;;;;9.93;3.00;;;21.60;97.30;;;;;;5037661;28;20565;-58
2022/09/21 10:49:59;;;;;;;8.43;2.75;;;20.70;99.90;;;;;;5045458;28;20596;-59
2022/09/21 10:52:37;;;;;;;5.90;2.40;;;20.80;99.90;;;;;;5041923;28;20029;-58
2022/09/21 10:55:04;;;;;;;6.65;1.90;;;20.50;99.90;;;;;;5045093;28;20028;-58
2022/09/21 10:57:32;;;;;;;8.25;2.63;;;20.60;99.90;;;;;;5044734;28;20029;-58
2022/09/21 11:00:34;;;;;;;5.15;1.60;;;21.60;99.90;;;;;;5042784;28;20132;-60
2022/09/21 11:03:23;;;;;;;5.72;1.52;;;22.50;98.20;;;;;;5041116;28;20048;-60
2022/09/21 11:05:50;;;;;;;4.00;1.23;;;23.40;96.60;;;;;;5066925;28;20040;-59
2022/09/21 11:08:27;;;;;;;3.42;0.95;;;24.50;93.90;;;;;;5047167;28;20128;-59
2022/09/21 11:11:17;;;;;;;5.72;1.25;;;25.50;88.30;;;;;;5046195;28;20124;-60
2022/09/21 11:14:11;;;;;;;5.55;1.23;;;25.10;86.30;;;;;;5043250;28;20164;-60
2022/09/21 11:16:57;;;;;;;4.93;1.30;;;24.10;89.60;;;;;;5050856;28;20508;-60
2022/09/21 11:19:51;;;;;;;4.93;1.05;;;23.50;87.90;;;;;;5048400;28;20029;-59
2022/09/21 11:22:23;;;;;;;4.18;1.27;;;23.50;87.30;;;;;;5036142;28;20444;-60
2022/09/21 11:25:03;;;;;;;6.20;1.20;;;24.00;86.60;;;;;;5044657;28;20102;-59
2022/09/21 11:27:35;;;;;;;4.50;1.30;;;23.80;85.20;;;;;;5048428;28;20087;-59
2022/09/21 11:30:03;;;;;;;4.27;1.30;;;24.80;82.50;;;;;;5047585;28;20025;-59
2022/09/21 11:32:54;;;;;;;4.55;1.23;;;25.90;78.50;;;;;;5049355;28;20029;-59
2022/09/21 11:35:34;;;;;;;3.10;1.10;;;26.20;80.00;;;;;;5045669;28;20066;-59
2022/09/21 11:38:34;;;;;;;6.60;1.08;;;26.70;70.60;;;;;;5046692;28;20539;-59
2022/09/21 11:41:36;;;;;;;6.25;1.10;;;25.80;72.30;;;;;;5046166;28;20066;-59
2022/09/21 11:44:17;;;;;;;2.63;0.88;;;24.80;76.00;;;;;;5051397;28;20039;-59
2022/09/21 11:47:01;;;;;;;7.88;1.15;;;23.50;80.50;;;;;;5038935;28;20536;-59
2022/09/21 11:49:46;;;;;;;5.55;0.82;;;23.00;84.90;;;;;;5053263;28;20033;-59
2022/09/21 11:52:44;;;;;;;4.63;0.82;;;22.40;82.00;;;;;;5040534;28;20489;-59
2022/09/21 11:55:21;;;;;;;4.40;0.70;;;21.80;88.50;;;;;;5048278;28;20029;-59
2022/09/21 11:58:17;;;;;;;2.08;0.52;;;23.00;83.70;;;;;;5050006;28;20402;-59
2022/09/21 12:01:23;;;;;;;1.95;0.40;;;23.30;76.70;;;;;;5047534;28;20017;-59
2022/09/21 12:04:09;;;;;;;1.27;0.50;;;22.10;72.90;;;;;;5043739;28;20049;-59
2022/09/21 12:07:02;;;;;;;4.28;0.90;;;21.30;79.10;;;;;;5050943;28;20044;-58
2022/09/21 12:09:52;;;;;;;6.63;1.00;;;21.70;84.90;;;;;;5051800;28;20037;-58
2022/09/21 12:12:39;;;;;;;4.57;0.88;;;22.70;76.10;;;;;;5048284;28;20029;-58
2022/09/21 12:15:26;;;;;;;6.72;1.38;;;23.70;77.20;;;;;;5042867;28;20458;-58
2022/09/21 12:18:06;;;;;;;5.32;1.30;;;23.50;76.50;;;;;;5046169;28;20027;-58
2022/09/21 12:20:43;;;;;;;4.07;1.10;;;23.70;79.30;;;;;;5045336;28;20033;-58
2022/09/21 12:23:20;;;;;;;4.47;1.10;;;23.70;82.00;;;;;;5050752;28;20025;-59
2022/09/21 12:25:50;;;;;;;4.05;0.70;;;24.10;79.60;;;;;;5045728;28;20443;-60
2022/09/21 12:28:23;;;;;;;2.55;0.82;;;25.00;74.80;;;;;;5039535;28;20079;-59
2022/09/21 12:30:56;;;;;;;5.03;1.08;;;23.90;77.20;;;;;;5050163;28;20061;-59
2022/09/21 12:33:34;;;;;;;3.80;0.90;;;23.00;81.50;;;;;;5049662;28;20119;-59
2022/09/21 12:36:21;;;;;;;6.18;1.10;;;23.10;81.50;;;;;;5046379;28;20061;-59
2022/09/21 12:39:22;;;;;;;2.60;0.77;;;23.40;80.10;;;;;;5049516;28;20544;-59
2022/09/21 12:42:00;;;;;;;3.35;1.10;;;23.50;78.90;;;;;;5026277;28;20040;-60
2022/09/21 12:44:51;;;;;;;6.47;1.20;;;22.60;81.80;;;;;;5047748;28;20122;-59
2022/09/21 12:47:26;;;;;;;6.00;1.20;;;21.60;86.30;;;;;;5045668;28;20036;-58
2022/09/21 12:50:12;;;;;;;4.25;1.20;;;21.70;87.20;;;;;;5048058;28;20017;-58
2022/09/21 12:52:38;;;;;;;4.40;1.10;;;21.60;86.20;;;;;;5043445;28;20416;-56
2022/09/21 12:55:20;;;;;;;6.88;0.88;;;21.20;89.00;;;;;;5045073;28;20031;-56
2022/09/21 12:58:02;;;;;;;7.95;1.00;;;20.50;91.50;;;;;;5048047;28;20083;-56
2022/09/21 13:00:37;;;;;;;3.45;0.90;;;21.20;91.40;;;;;;5046017;28;20028;-59
2022/09/21 13:03:18;;;;;;;3.40;1.10;;;22.00;90.60;;;;;;5047248;28;20406;-59
2022/09/21 13:05:51;;;;;;;5.55;1.27;;;22.70;88.30;;;;;;5049898;28;20021;-59
2022/09/21 13:08:45;;;;;;;3.70;1.10;;;24.30;83.20;;;;;;5046706;28;20040;-59
2022/09/21 13:11:11;;;;;;;3.28;0.93;;;25.20;77.90;;;;;;5045408;28;20047;-59
2022/09/21 13:13:44;;;;;;;5.32;1.20;;;24.70;75.00;;;;;;5047733;28;20036;-59